Nunda, NY (14517)

6:06 AM EDT on September 02, 2015 (GMT -0400)
Nunda Mt Morris TL Rd./Scipio Rd. | | Change Station
CLOSE
Current Station
Personal Weather Station
Location: Nunda, NY
Elevation: 1024 ft
Nearby Weather Stations

Elev 1024 ft 42.58 °N, 77.90 °W | Updated 12 seconds ago

Clear
Clear
62.4 °F
Feels Like 62.4 °F
N
0.0
Wind Variable Wind from SW
Gusts 0.0 mph

Today
High -- | Low -- °F
--% Chance of Precip.
Yesterday
High -- | Low -- °F
Precip. -- in
6:37 AM 7:44 PM
Waning Gibbous, 81% visible
Pressure 30.09 in
Visibility 6.0 miles
Clouds Clear
Dew Point 56 °F
Humidity 80%
Rainfall 0.00 in
Snow Depth Not available.
UV 0 out of 12
Pollen 10.10 out of 12
Air Quality Not available.
Flu Activity Not available.
METAR KDSV 020954Z AUTO 14004KT 6SM BR CLR 17/16 A3007 RMK AO2 SLP187 T01720161 $
Pressure 30.09 in
Visibility 6.0 miles
Clouds Clear
Dew Point 56 °F
Humidity 80%
Rainfall 0.00 in
Snow Depth Not available.
UV 0 out of 12
Pollen 10.10 out of 12
Air Quality Not available.
Flu Activity Not available.
METAR KDSV 020954Z AUTO 14004KT 6SM BR CLR 17/16 A3007 RMK AO2 SLP187 T01720161 $

10-Day Weather Forecast

×

Almanac

Astronomy

Sep. 02, 2015 Rise Set
Actual Time
Civil Twilight
Nautical Twilight
Astronomical Twilight
Moon
Length of Visible Light
Length of Day
Tomorrow will be .
, % of the Moon is Illuminated

Today's Extremes

State Highs State Lows

Community

WunderPhotos

Upload Photos

1,851,731 photos uploaded!

WunderBlogs® & News

Nearby

Air Quality

  Air Quality AQ Index Pollutant
Not available.

Snow Depth

Station Depth Elevation

Earthquake Activity

City Distance Mag. Time & Date
Minimum magnitude displayed is 2.5.

Coastal Water Temperatures

Place Temperature

Stations

Nearby Weather Stations

Station Location Temp. Windchill Dew Point Humidity Wind Precip. Elev Updated Type